sensor_id;sensor_type;location;lat;lon;timestamp;temperature;humidity
64888;DHT22;51386;53.082;8.816;2023-11-18T00:00:23;7.60;89.10
64888;DHT22;51386;53.082;8.816;2023-11-18T00:02:52;7.60;88.70
64888;DHT22;51386;53.082;8.816;2023-11-18T00:05:20;7.60;89.00
64888;DHT22;51386;53.082;8.816;2023-11-18T00:07:49;7.60;89.00
64888;DHT22;51386;53.082;8.816;2023-11-18T00:10:18;7.60;88.90
64888;DHT22;51386;53.082;8.816;2023-11-18T00:12:47;7.60;89.10
64888;DHT22;51386;53.082;8.816;2023-11-18T00:15:15;7.60;89.10
64888;DHT22;51386;53.082;8.816;2023-11-18T00:17:43;7.60;88.90
64888;DHT22;51386;53.082;8.816;2023-11-18T00:20:12;7.60;88.70
64888;DHT22;51386;53.082;8.816;2023-11-18T00:22:41;7.60;88.50
64888;DHT22;51386;53.082;8.816;2023-11-18T00:25:11;7.60;88.40
64888;DHT22;51386;53.082;8.816;2023-11-18T00:27:42;7.50;88.30
64888;DHT22;51386;53.082;8.816;2023-11-18T00:30:11;7.40;88.10
64888;DHT22;51386;53.082;8.816;2023-11-18T00:32:40;7.40;88.40
64888;DHT22;51386;53.082;8.816;2023-11-18T00:35:09;7.30;88.60
64888;DHT22;51386;53.082;8.816;2023-11-18T00:37:38;7.20;88.70
64888;DHT22;51386;53.082;8.816;2023-11-18T00:40:08;7.10;88.80
64888;DHT22;51386;53.082;8.816;2023-11-18T00:42:37;7.00;89.30
64888;DHT22;51386;53.082;8.816;2023-11-18T00:45:06;6.90;89.40
64888;DHT22;51386;53.082;8.816;2023-11-18T00:47:35;6.90;90.00
64888;DHT22;51386;53.082;8.816;2023-11-18T00:50:04;6.80;90.20
64888;DHT22;51386;53.082;8.816;2023-11-18T00:52:36;6.70;90.20
64888;DHT22;51386;53.082;8.816;2023-11-18T00:55:10;6.70;90.40
64888;DHT22;51386;53.082;8.816;2023-11-18T00:57:38;6.60;90.60
64888;DHT22;51386;53.082;8.816;2023-11-18T01:00:08;6.60;90.70
64888;DHT22;51386;53.082;8.816;2023-11-18T01:02:42;6.60;90.80
64888;DHT22;51386;53.082;8.816;2023-11-18T01:05:11;6.60;90.80
64888;DHT22;51386;53.082;8.816;2023-11-18T01:07:41;6.60;91.20
64888;DHT22;51386;53.082;8.816;2023-11-18T01:10:11;6.60;91.00
64888;DHT22;51386;53.082;8.816;2023-11-18T01:12:41;6.60;91.00
64888;DHT22;51386;53.082;8.816;2023-11-18T01:15:13;6.60;91.00
64888;DHT22;51386;53.082;8.816;2023-11-18T01:17:42;6.60;91.10
64888;DHT22;51386;53.082;8.816;2023-11-18T01:20:11;6.60;91.20
64888;DHT22;51386;53.082;8.816;2023-11-18T01:22:41;6.60;91.30
64888;DHT22;51386;53.082;8.816;2023-11-18T01:25:11;6.50;91.30
64888;DHT22;51386;53.082;8.816;2023-11-18T01:27:39;6.50;91.40
64888;DHT22;51386;53.082;8.816;2023-11-18T01:30:08;6.50;91.60
64888;DHT22;51386;53.082;8.816;2023-11-18T01:32:38;6.60;92.10
64888;DHT22;51386;53.082;8.816;2023-11-18T01:35:08;6.70;92.10
64888;DHT22;51386;53.082;8.816;2023-11-18T01:37:38;6.80;92.10
64888;DHT22;51386;53.082;8.816;2023-11-18T01:40:07;7.00;91.90
64888;DHT22;51386;53.082;8.816;2023-11-18T01:42:36;7.10;91.70
64888;DHT22;51386;53.082;8.816;2023-11-18T01:45:05;7.20;91.40
64888;DHT22;51386;53.082;8.816;2023-11-18T01:47:36;7.30;91.20
64888;DHT22;51386;53.082;8.816;2023-11-18T01:50:06;7.40;90.90
64888;DHT22;51386;53.082;8.816;2023-11-18T01:52:37;7.50;90.80
64888;DHT22;51386;53.082;8.816;2023-11-18T01:55:09;7.50;90.60
64888;DHT22;51386;53.082;8.816;2023-11-18T01:57:38;7.60;90.40
64888;DHT22;51386;53.082;8.816;2023-11-18T02:00:11;7.60;90.40
64888;DHT22;51386;53.082;8.816;2023-11-18T02:02:41;7.70;90.30
64888;DHT22;51386;53.082;8.816;2023-11-18T02:05:11;7.70;90.20
64888;DHT22;51386;53.082;8.816;2023-11-18T02:07:40;7.70;90.10
64888;DHT22;51386;53.082;8.816;2023-11-18T02:10:09;7.80;90.00
64888;DHT22;51386;53.082;8.816;2023-11-18T02:12:44;7.70;89.80
64888;DHT22;51386;53.082;8.816;2023-11-18T02:15:21;7.70;89.80
64888;DHT22;51386;53.082;8.816;2023-11-18T02:17:53;7.70;90.00
64888;DHT22;51386;53.082;8.816;2023-11-18T02:20:25;7.60;90.00
64888;DHT22;51386;53.082;8.816;2023-11-18T02:22:54;7.60;90.20
64888;DHT22;51386;53.082;8.816;2023-11-18T02:25:24;7.60;90.20
64888;DHT22;51386;53.082;8.816;2023-11-18T02:27:56;7.50;90.20
64888;DHT22;51386;53.082;8.816;2023-11-18T02:30:25;7.50;90.30
64888;DHT22;51386;53.082;8.816;2023-11-18T02:33:01;7.50;90.30
64888;DHT22;51386;53.082;8.816;2023-11-18T02:36:14;7.40;90.30
64888;DHT22;51386;53.082;8.816;2023-11-18T02:38:54;7.50;90.30
64888;DHT22;51386;53.082;8.816;2023-11-18T02:41:25;7.40;90.30
64888;DHT22;51386;53.082;8.816;2023-11-18T02:43:57;7.40;90.40
64888;DHT22;51386;53.082;8.816;2023-11-18T02:46:26;7.30;90.40
64888;DHT22;51386;53.082;8.816;2023-11-18T02:48:55;7.30;90.40
64888;DHT22;51386;53.082;8.816;2023-11-18T02:51:23;7.30;90.50
64888;DHT22;51386;53.082;8.816;2023-11-18T02:53:52;7.20;90.60
64888;DHT22;51386;53.082;8.816;2023-11-18T02:56:20;7.20;90.60
64888;DHT22;51386;53.082;8.816;2023-11-18T02:58:49;7.20;90.80
64888;DHT22;51386;53.082;8.816;2023-11-18T03:01:18;7.30;90.80
64888;DHT22;51386;53.082;8.816;2023-11-18T03:03:47;7.30;90.80
64888;DHT22;51386;53.082;8.816;2023-11-18T03:06:15;7.30;90.60
64888;DHT22;51386;53.082;8.816;2023-11-18T03:08:44;7.20;90.60
64888;DHT22;51386;53.082;8.816;2023-11-18T03:11:12;7.30;90.80
64888;DHT22;51386;53.082;8.816;2023-11-18T03:13:41;7.30;90.80
64888;DHT22;51386;53.082;8.816;2023-11-18T03:16:10;7.30;90.70
64888;DHT22;51386;53.082;8.816;2023-11-18T03:18:41;7.30;90.90
64888;DHT22;51386;53.082;8.816;2023-11-18T03:21:13;7.30;90.80
64888;DHT22;51386;53.082;8.816;2023-11-18T03:23:42;7.30;90.90
64888;DHT22;51386;53.082;8.816;2023-11-18T03:26:11;7.30;90.90
64888;DHT22;51386;53.082;8.816;2023-11-18T03:28:40;7.40;90.80
64888;DHT22;51386;53.082;8.816;2023-11-18T03:31:08;7.30;90.80
64888;DHT22;51386;53.082;8.816;2023-11-18T03:33:37;7.20;90.90
64888;DHT22;51386;53.082;8.816;2023-11-18T03:36:05;7.20;91.10
64888;DHT22;51386;53.082;8.816;2023-11-18T03:38:34;7.20;91.40
64888;DHT22;51386;53.082;8.816;2023-11-18T03:41:03;7.10;91.10
64888;DHT22;51386;53.082;8.816;2023-11-18T03:43:31;7.10;91.10
64888;DHT22;51386;53.082;8.816;2023-11-18T03:45:59;7.00;91.30
64888;DHT22;51386;53.082;8.816;2023-11-18T03:48:28;7.00;91.40
64888;DHT22;51386;53.082;8.816;2023-11-18T03:50:56;7.00;91.70
64888;DHT22;51386;53.082;8.816;2023-11-18T03:53:25;7.00;91.80
64888;DHT22;51386;53.082;8.816;2023-11-18T03:55:53;7.00;91.90
64888;DHT22;51386;53.082;8.816;2023-11-18T03:58:22;7.10;92.00
64888;DHT22;51386;53.082;8.816;2023-11-18T04:00:50;7.10;91.90
64888;DHT22;51386;53.082;8.816;2023-11-18T04:03:18;7.10;91.80
64888;DHT22;51386;53.082;8.816;2023-11-18T04:05:47;7.10;91.70
64888;DHT22;51386;53.082;8.816;2023-11-18T04:08:15;7.10;91.90
64888;DHT22;51386;53.082;8.816;2023-11-18T04:10:44;7.00;91.70
64888;DHT22;51386;53.082;8.816;2023-11-18T04:13:12;7.00;91.90
64888;DHT22;51386;53.082;8.816;2023-11-18T04:15:40;7.00;92.20
64888;DHT22;51386;53.082;8.816;2023-11-18T04:18:09;7.00;92.30
64888;DHT22;51386;53.082;8.816;2023-11-18T04:20:37;7.00;92.30
64888;DHT22;51386;53.082;8.816;2023-11-18T04:23:06;6.90;92.20
64888;DHT22;51386;53.082;8.816;2023-11-18T04:25:34;6.90;92.00
64888;DHT22;51386;53.082;8.816;2023-11-18T04:28:03;6.80;92.10
64888;DHT22;51386;53.082;8.816;2023-11-18T04:30:32;6.70;92.20
64888;DHT22;51386;53.082;8.816;2023-11-18T04:33:00;6.70;92.50
64888;DHT22;51386;53.082;8.816;2023-11-18T04:35:29;6.60;92.60
64888;DHT22;51386;53.082;8.816;2023-11-18T04:37:58;6.50;92.90
64888;DHT22;51386;53.082;8.816;2023-11-18T04:40:26;6.40;93.10
64888;DHT22;51386;53.082;8.816;2023-11-18T04:42:55;6.40;93.10
64888;DHT22;51386;53.082;8.816;2023-11-18T04:45:23;6.30;93.40
64888;DHT22;51386;53.082;8.816;2023-11-18T04:47:51;6.40;93.70
64888;DHT22;51386;53.082;8.816;2023-11-18T04:50:22;6.40;93.60
64888;DHT22;51386;53.082;8.816;2023-11-18T04:52:50;6.40;93.70
64888;DHT22;51386;53.082;8.816;2023-11-18T04:55:19;6.40;93.70
64888;DHT22;51386;53.082;8.816;2023-11-18T04:57:48;6.50;93.80
64888;DHT22;51386;53.082;8.816;2023-11-18T05:00:16;6.50;93.80
64888;DHT22;51386;53.082;8.816;2023-11-18T05:02:46;6.50;93.80
64888;DHT22;51386;53.082;8.816;2023-11-18T05:05:16;6.60;93.80
64888;DHT22;51386;53.082;8.816;2023-11-18T05:07:44;6.60;93.60
64888;DHT22;51386;53.082;8.816;2023-11-18T05:10:13;6.60;93.60
64888;DHT22;51386;53.082;8.816;2023-11-18T05:12:41;6.60;93.50
64888;DHT22;51386;53.082;8.816;2023-11-18T05:15:11;6.60;93.60
64888;DHT22;51386;53.082;8.816;2023-11-18T05:17:40;6.60;93.70
64888;DHT22;51386;53.082;8.816;2023-11-18T05:20:09;6.60;93.70
64888;DHT22;51386;53.082;8.816;2023-11-18T05:22:39;6.60;93.70
64888;DHT22;51386;53.082;8.816;2023-11-18T05:25:07;6.50;93.70
64888;DHT22;51386;53.082;8.816;2023-11-18T05:27:38;6.50;93.80
64888;DHT22;51386;53.082;8.816;2023-11-18T05:30:10;6.50;93.90
64888;DHT22;51386;53.082;8.816;2023-11-18T05:32:39;6.50;93.90
64888;DHT22;51386;53.082;8.816;2023-11-18T05:35:08;6.50;94.00
64888;DHT22;51386;53.082;8.816;2023-11-18T05:37:39;6.50;94.00
64888;DHT22;51386;53.082;8.816;2023-11-18T05:40:09;6.60;94.30
64888;DHT22;51386;53.082;8.816;2023-11-18T05:42:43;6.60;94.20
64888;DHT22;51386;53.082;8.816;2023-11-18T05:45:14;6.50;94.00
64888;DHT22;51386;53.082;8.816;2023-11-18T05:47:56;6.60;94.10
64888;DHT22;51386;53.082;8.816;2023-11-18T05:50:25;6.50;94.10
64888;DHT22;51386;53.082;8.816;2023-11-18T05:52:54;6.50;94.30
64888;DHT22;51386;53.082;8.816;2023-11-18T05:55:23;6.50;94.30
64888;DHT22;51386;53.082;8.816;2023-11-18T05:57:51;6.60;94.40
64888;DHT22;51386;53.082;8.816;2023-11-18T06:00:20;6.60;94.30
64888;DHT22;51386;53.082;8.816;2023-11-18T06:02:58;6.60;94.30
64888;DHT22;51386;53.082;8.816;2023-11-18T06:05:27;6.60;94.30
64888;DHT22;51386;53.082;8.816;2023-11-18T06:07:57;6.60;94.20
64888;DHT22;51386;53.082;8.816;2023-11-18T06:10:27;6.60;94.30
64888;DHT22;51386;53.082;8.816;2023-11-18T06:12:56;6.60;94.50
64888;DHT22;51386;53.082;8.816;2023-11-18T06:15:26;6.60;94.40
64888;DHT22;51386;53.082;8.816;2023-11-18T06:17:55;6.60;94.30
64888;DHT22;51386;53.082;8.816;2023-11-18T06:20:23;6.60;94.40
64888;DHT22;51386;53.082;8.816;2023-11-18T06:22:52;6.60;94.30
64888;DHT22;51386;53.082;8.816;2023-11-18T06:25:20;6.60;94.40
64888;DHT22;51386;53.082;8.816;2023-11-18T06:27:50;6.60;94.50
64888;DHT22;51386;53.082;8.816;2023-11-18T06:30:20;6.60;94.50
64888;DHT22;51386;53.082;8.816;2023-11-18T06:32:50;6.60;94.60
64888;DHT22;51386;53.082;8.816;2023-11-18T06:35:19;6.60;94.80
64888;DHT22;51386;53.082;8.816;2023-11-18T06:37:49;6.60;94.90
64888;DHT22;51386;53.082;8.816;2023-11-18T06:40:17;6.50;94.80
64888;DHT22;51386;53.082;8.816;2023-11-18T06:42:46;6.50;95.10
64888;DHT22;51386;53.082;8.816;2023-11-18T06:45:15;6.50;95.10
64888;DHT22;51386;53.082;8.816;2023-11-18T06:47:43;6.50;95.20
64888;DHT22;51386;53.082;8.816;2023-11-18T06:50:12;6.60;95.30
64888;DHT22;51386;53.082;8.816;2023-11-18T06:52:42;6.60;95.30
64888;DHT22;51386;53.082;8.816;2023-11-18T06:55:14;6.70;95.30
64888;DHT22;51386;53.082;8.816;2023-11-18T06:57:43;6.70;95.20
64888;DHT22;51386;53.082;8.816;2023-11-18T07:00:12;6.80;95.20
64888;DHT22;51386;53.082;8.816;2023-11-18T07:02:42;6.80;95.10
64888;DHT22;51386;53.082;8.816;2023-11-18T07:05:11;6.80;95.10
64888;DHT22;51386;53.082;8.816;2023-11-18T07:07:40;6.70;95.10
64888;DHT22;51386;53.082;8.816;2023-11-18T07:10:11;6.70;95.10
64888;DHT22;51386;53.082;8.816;2023-11-18T07:12:41;6.70;95.20
64888;DHT22;51386;53.082;8.816;2023-11-18T07:15:09;6.70;95.40
64888;DHT22;51386;53.082;8.816;2023-11-18T07:17:38;6.60;95.30
64888;DHT22;51386;53.082;8.816;2023-11-18T07:20:07;6.70;95.60
64888;DHT22;51386;53.082;8.816;2023-11-18T07:22:40;6.60;95.50
64888;DHT22;51386;53.082;8.816;2023-11-18T07:25:08;6.70;95.50
64888;DHT22;51386;53.082;8.816;2023-11-18T07:27:37;6.70;95.60
64888;DHT22;51386;53.082;8.816;2023-11-18T07:30:06;6.70;95.50
64888;DHT22;51386;53.082;8.816;2023-11-18T07:32:38;6.70;95.60
64888;DHT22;51386;53.082;8.816;2023-11-18T07:35:08;6.70;95.60
64888;DHT22;51386;53.082;8.816;2023-11-18T07:37:37;6.70;95.60
64888;DHT22;51386;53.082;8.816;2023-11-18T07:40:06;6.70;95.70
64888;DHT22;51386;53.082;8.816;2023-11-18T07:42:36;6.70;95.60
64888;DHT22;51386;53.082;8.816;2023-11-18T07:45:05;6.70;95.70
64888;DHT22;51386;53.082;8.816;2023-11-18T07:47:45;6.70;95.70
64888;DHT22;51386;53.082;8.816;2023-11-18T07:50:15;6.70;95.70
64888;DHT22;51386;53.082;8.816;2023-11-18T07:52:48;6.70;95.80
64888;DHT22;51386;53.082;8.816;2023-11-18T07:55:17;6.60;95.90
64888;DHT22;51386;53.082;8.816;2023-11-18T07:57:46;6.60;96.00
64888;DHT22;51386;53.082;8.816;2023-11-18T08:00:14;6.60;96.00
64888;DHT22;51386;53.082;8.816;2023-11-18T08:02:43;6.60;95.90
64888;DHT22;51386;53.082;8.816;2023-11-18T08:05:12;6.60;96.10
64888;DHT22;51386;53.082;8.816;2023-11-18T08:07:42;6.60;96.30
64888;DHT22;51386;53.082;8.816;2023-11-18T08:10:13;6.60;96.30
64888;DHT22;51386;53.082;8.816;2023-11-18T08:12:46;6.70;96.20
64888;DHT22;51386;53.082;8.816;2023-11-18T08:15:15;6.70;96.30
64888;DHT22;51386;53.082;8.816;2023-11-18T08:17:43;6.80;96.50
64888;DHT22;51386;53.082;8.816;2023-11-18T08:20:12;6.90;96.40
64888;DHT22;51386;53.082;8.816;2023-11-18T08:22:43;6.90;96.10
64888;DHT22;51386;53.082;8.816;2023-11-18T08:25:13;7.00;95.80
64888;DHT22;51386;53.082;8.816;2023-11-18T08:27:45;7.00;95.70
64888;DHT22;51386;53.082;8.816;2023-11-18T08:30:14;7.00;95.70
64888;DHT22;51386;53.082;8.816;2023-11-18T08:32:46;7.00;95.50
64888;DHT22;51386;53.082;8.816;2023-11-18T08:35:15;7.00;95.50
64888;DHT22;51386;53.082;8.816;2023-11-18T08:37:44;7.10;95.60
64888;DHT22;51386;53.082;8.816;2023-11-18T08:40:14;7.10;95.50
64888;DHT22;51386;53.082;8.816;2023-11-18T08:42:47;7.10;95.50
64888;DHT22;51386;53.082;8.816;2023-11-18T08:45:22;7.10;95.50
64888;DHT22;51386;53.082;8.816;2023-11-18T08:47:57;7.10;95.50
64888;DHT22;51386;53.082;8.816;2023-11-18T08:50:28;7.10;95.40
64888;DHT22;51386;53.082;8.816;2023-11-18T08:52:56;7.10;95.30
64888;DHT22;51386;53.082;8.816;2023-11-18T08:55:32;7.10;95.20
64888;DHT22;51386;53.082;8.816;2023-11-18T08:58:01;7.10;95.20
64888;DHT22;51386;53.082;8.816;2023-11-18T09:00:31;7.10;95.20
64888;DHT22;51386;53.082;8.816;2023-11-18T09:05:46;7.10;95.50
64888;DHT22;51386;53.082;8.816;2023-11-18T09:08:29;7.00;95.40
64888;DHT22;51386;53.082;8.816;2023-11-18T09:11:12;7.10;95.40
64888;DHT22;51386;53.082;8.816;2023-11-18T09:13:43;7.10;95.80
64888;DHT22;51386;53.082;8.816;2023-11-18T09:16:15;7.10;95.50
64888;DHT22;51386;53.082;8.816;2023-11-18T09:18:44;7.20;95.50
64888;DHT22;51386;53.082;8.816;2023-11-18T09:21:13;7.20;95.30
64888;DHT22;51386;53.082;8.816;2023-11-18T09:23:51;7.30;95.20
64888;DHT22;51386;53.082;8.816;2023-11-18T09:26:19;7.30;95.10
64888;DHT22;51386;53.082;8.816;2023-11-18T09:28:49;7.30;95.00
64888;DHT22;51386;53.082;8.816;2023-11-18T09:31:20;7.40;95.00
64888;DHT22;51386;53.082;8.816;2023-11-18T09:33:49;7.40;94.90
64888;DHT22;51386;53.082;8.816;2023-11-18T09:36:20;7.50;94.80
64888;DHT22;51386;53.082;8.816;2023-11-18T09:38:50;7.50;94.80
64888;DHT22;51386;53.082;8.816;2023-11-18T09:41:22;7.60;94.90
64888;DHT22;51386;53.082;8.816;2023-11-18T09:43:55;7.60;95.00
64888;DHT22;51386;53.082;8.816;2023-11-18T09:46:26;7.70;94.80
64888;DHT22;51386;53.082;8.816;2023-11-18T09:49:28;7.70;94.50
64888;DHT22;51386;53.082;8.816;2023-11-18T09:52:03;7.70;94.40
64888;DHT22;51386;53.082;8.816;2023-11-18T09:54:40;7.80;94.30
64888;DHT22;51386;53.082;8.816;2023-11-18T09:58:01;7.70;94.30
64888;DHT22;51386;53.082;8.816;2023-11-18T10:00:35;7.80;94.30
64888;DHT22;51386;53.082;8.816;2023-11-18T10:03:09;7.80;94.30
64888;DHT22;51386;53.082;8.816;2023-11-18T10:05:44;7.80;94.20
64888;DHT22;51386;53.082;8.816;2023-11-18T10:08:13;7.80;94.10
64888;DHT22;51386;53.082;8.816;2023-11-18T10:10:47;7.80;94.20
64888;DHT22;51386;53.082;8.816;2023-11-18T10:13:15;7.80;94.20
64888;DHT22;51386;53.082;8.816;2023-11-18T10:15:50;7.80;94.10
64888;DHT22;51386;53.082;8.816;2023-11-18T10:18:22;7.80;94.00
64888;DHT22;51386;53.082;8.816;2023-11-18T10:20:51;7.80;94.10
64888;DHT22;51386;53.082;8.816;2023-11-18T10:23:22;7.80;94.10
64888;DHT22;51386;53.082;8.816;2023-11-18T10:25:53;7.80;94.10
64888;DHT22;51386;53.082;8.816;2023-11-18T10:28:29;7.70;94.10
64888;DHT22;51386;53.082;8.816;2023-11-18T10:31:02;7.70;94.20
64888;DHT22;51386;53.082;8.816;2023-11-18T10:33:37;7.70;94.20
64888;DHT22;51386;53.082;8.816;2023-11-18T10:36:20;7.70;94.20
64888;DHT22;51386;53.082;8.816;2023-11-18T10:38:52;7.70;94.20
64888;DHT22;51386;53.082;8.816;2023-11-18T10:41:23;7.70;94.30
64888;DHT22;51386;53.082;8.816;2023-11-18T10:44:08;7.70;94.50
64888;DHT22;51386;53.082;8.816;2023-11-18T10:46:53;7.70;94.50
64888;DHT22;51386;53.082;8.816;2023-11-18T10:49:22;7.70;94.30
64888;DHT22;51386;53.082;8.816;2023-11-18T10:51:51;7.70;94.40
64888;DHT22;51386;53.082;8.816;2023-11-18T10:54:20;7.80;94.30
64888;DHT22;51386;53.082;8.816;2023-11-18T10:56:50;7.80;94.30
64888;DHT22;51386;53.082;8.816;2023-11-18T10:59:24;7.80;94.30
64888;DHT22;51386;53.082;8.816;2023-11-18T11:01:54;7.80;94.30
64888;DHT22;51386;53.082;8.816;2023-11-18T11:04:25;7.80;94.30
64888;DHT22;51386;53.082;8.816;2023-11-18T11:06:54;7.90;94.40
64888;DHT22;51386;53.082;8.816;2023-11-18T11:09:25;7.90;94.40
64888;DHT22;51386;53.082;8.816;2023-11-18T11:11:57;7.90;94.40
64888;DHT22;51386;53.082;8.816;2023-11-18T11:14:35;8.00;94.50
64888;DHT22;51386;53.082;8.816;2023-11-18T11:17:16;8.00;94.50
64888;DHT22;51386;53.082;8.816;2023-11-18T11:20:08;8.00;94.40
64888;DHT22;51386;53.082;8.816;2023-11-18T11:23:13;8.10;94.50
64888;DHT22;51386;53.082;8.816;2023-11-18T11:26:16;8.10;94.50
64888;DHT22;51386;53.082;8.816;2023-11-18T11:29:26;8.10;94.50
64888;DHT22;51386;53.082;8.816;2023-11-18T11:35:01;8.20;94.40
64888;DHT22;51386;53.082;8.816;2023-11-18T11:37:37;8.20;94.40
64888;DHT22;51386;53.082;8.816;2023-11-18T11:40:08;8.20;94.40
64888;DHT22;51386;53.082;8.816;2023-11-18T11:42:40;8.20;94.40
64888;DHT22;51386;53.082;8.816;2023-11-18T11:45:10;8.20;94.50
64888;DHT22;51386;53.082;8.816;2023-11-18T11:47:50;8.20;94.50
64888;DHT22;51386;53.082;8.816;2023-11-18T11:50:26;8.30;94.90
64888;DHT22;51386;53.082;8.816;2023-11-18T11:53:12;8.30;94.40
64888;DHT22;51386;53.082;8.816;2023-11-18T11:55:51;8.30;94.40
64888;DHT22;51386;53.082;8.816;2023-11-18T11:58:31;8.40;94.20
64888;DHT22;51386;53.082;8.816;2023-11-18T12:01:21;8.50;94.10
64888;DHT22;51386;53.082;8.816;2023-11-18T12:04:03;8.50;93.90
64888;DHT22;51386;53.082;8.816;2023-11-18T12:06:42;8.50;93.70
64888;DHT22;51386;53.082;8.816;2023-11-18T12:09:13;8.50;93.70
64888;DHT22;51386;53.082;8.816;2023-11-18T12:11:49;8.50;93.70
64888;DHT22;51386;53.082;8.816;2023-11-18T12:14:18;8.50;93.60
64888;DHT22;51386;53.082;8.816;2023-11-18T12:17:03;8.60;93.60
64888;DHT22;51386;53.082;8.816;2023-11-18T12:19:49;8.60;93.70
64888;DHT22;51386;53.082;8.816;2023-11-18T12:22:27;8.50;93.70
64888;DHT22;51386;53.082;8.816;2023-11-18T12:27:42;8.60;93.70
64888;DHT22;51386;53.082;8.816;2023-11-18T12:33:02;8.50;93.70
64888;DHT22;51386;53.082;8.816;2023-11-18T12:41:36;8.50;93.80
64888;DHT22;51386;53.082;8.816;2023-11-18T12:44:30;8.50;93.80
64888;DHT22;51386;53.082;8.816;2023-11-18T12:47:08;8.50;93.80
64888;DHT22;51386;53.082;8.816;2023-11-18T12:49:46;8.50;93.80
64888;DHT22;51386;53.082;8.816;2023-11-18T12:52:23;8.60;93.90
64888;DHT22;51386;53.082;8.816;2023-11-18T12:54:52;8.60;93.90
64888;DHT22;51386;53.082;8.816;2023-11-18T12:57:29;8.60;93.90
64888;DHT22;51386;53.082;8.816;2023-11-18T13:00:06;8.50;93.90
64888;DHT22;51386;53.082;8.816;2023-11-18T13:02:40;8.50;93.90
64888;DHT22;51386;53.082;8.816;2023-11-18T13:05:09;8.50;93.90
64888;DHT22;51386;53.082;8.816;2023-11-18T13:07:38;8.50;93.90
64888;DHT22;51386;53.082;8.816;2023-11-18T13:10:08;8.50;93.90
64888;DHT22;51386;53.082;8.816;2023-11-18T13:12:36;8.50;94.00
64888;DHT22;51386;53.082;8.816;2023-11-18T13:15:05;8.50;94.00
64888;DHT22;51386;53.082;8.816;2023-11-18T13:17:36;8.50;94.00
64888;DHT22;51386;53.082;8.816;2023-11-18T13:20:14;8.50;94.00
64888;DHT22;51386;53.082;8.816;2023-11-18T13:22:43;8.50;94.10
64888;DHT22;51386;53.082;8.816;2023-11-18T13:25:14;8.40;94.00
64888;DHT22;51386;53.082;8.816;2023-11-18T13:27:45;8.40;94.00
64888;DHT22;51386;53.082;8.816;2023-11-18T13:30:14;8.40;94.10
64888;DHT22;51386;53.082;8.816;2023-11-18T13:32:45;8.40;94.10
64888;DHT22;51386;53.082;8.816;2023-11-18T13:35:14;8.50;94.20
64888;DHT22;51386;53.082;8.816;2023-11-18T13:37:47;8.40;94.20
64888;DHT22;51386;53.082;8.816;2023-11-18T13:40:17;8.40;94.20
64888;DHT22;51386;53.082;8.816;2023-11-18T13:42:48;8.40;94.10
64888;DHT22;51386;53.082;8.816;2023-11-18T13:45:29;8.40;94.00
64888;DHT22;51386;53.082;8.816;2023-11-18T13:48:05;8.40;94.00
64888;DHT22;51386;53.082;8.816;2023-11-18T13:50:36;8.40;94.00
64888;DHT22;51386;53.082;8.816;2023-11-18T13:53:07;8.40;94.00
64888;DHT22;51386;53.082;8.816;2023-11-18T13:55:36;8.40;93.90
64888;DHT22;51386;53.082;8.816;2023-11-18T13:58:06;8.40;93.90
64888;DHT22;51386;53.082;8.816;2023-11-18T14:00:35;8.50;93.80
64888;DHT22;51386;53.082;8.816;2023-11-18T14:03:10;8.50;93.50
64888;DHT22;51386;53.082;8.816;2023-11-18T14:05:42;8.50;93.50
64888;DHT22;51386;53.082;8.816;2023-11-18T14:08:25;8.50;93.00
64888;DHT22;51386;53.082;8.816;2023-11-18T14:13:46;8.50;92.90
64888;DHT22;51386;53.082;8.816;2023-11-18T14:16:15;8.60;92.60
64888;DHT22;51386;53.082;8.816;2023-11-18T14:18:44;8.60;92.20
64888;DHT22;51386;53.082;8.816;2023-11-18T14:21:13;8.60;92.00
64888;DHT22;51386;53.082;8.816;2023-11-18T14:23:45;8.60;91.90
64888;DHT22;51386;53.082;8.816;2023-11-18T14:26:13;8.60;91.70
64888;DHT22;51386;53.082;8.816;2023-11-18T14:28:41;8.60;91.60
64888;DHT22;51386;53.082;8.816;2023-11-18T14:31:11;8.60;91.60
64888;DHT22;51386;53.082;8.816;2023-11-18T14:33:40;8.60;91.80
64888;DHT22;51386;53.082;8.816;2023-11-18T14:36:08;8.60;91.90
64888;DHT22;51386;53.082;8.816;2023-11-18T14:38:37;8.60;92.10
64888;DHT22;51386;53.082;8.816;2023-11-18T14:41:06;8.60;92.30
64888;DHT22;51386;53.082;8.816;2023-11-18T14:43:35;8.60;92.60
64888;DHT22;51386;53.082;8.816;2023-11-18T14:46:04;8.50;92.60
64888;DHT22;51386;53.082;8.816;2023-11-18T14:48:32;8.50;92.90
64888;DHT22;51386;53.082;8.816;2023-11-18T14:51:00;8.40;93.00
64888;DHT22;51386;53.082;8.816;2023-11-18T14:53:29;8.40;93.20
64888;DHT22;51386;53.082;8.816;2023-11-18T14:55:57;8.40;93.30
64888;DHT22;51386;53.082;8.816;2023-11-18T14:58:26;8.30;93.40
64888;DHT22;51386;53.082;8.816;2023-11-18T15:00:54;8.30;93.40
64888;DHT22;51386;53.082;8.816;2023-11-18T15:03:25;8.30;93.50
64888;DHT22;51386;53.082;8.816;2023-11-18T15:05:54;8.20;93.50
64888;DHT22;51386;53.082;8.816;2023-11-18T15:08:22;8.20;93.60
64888;DHT22;51386;53.082;8.816;2023-11-18T15:10:51;8.20;93.80
64888;DHT22;51386;53.082;8.816;2023-11-18T15:13:19;8.20;93.90
64888;DHT22;51386;53.082;8.816;2023-11-18T15:15:48;8.20;93.90
64888;DHT22;51386;53.082;8.816;2023-11-18T15:18:18;8.20;93.90
64888;DHT22;51386;53.082;8.816;2023-11-18T15:20:59;8.20;93.90
64888;DHT22;51386;53.082;8.816;2023-11-18T15:23:33;8.20;93.90
64888;DHT22;51386;53.082;8.816;2023-11-18T15:26:01;8.20;94.00
64888;DHT22;51386;53.082;8.816;2023-11-18T15:28:51;8.20;94.20
64888;DHT22;51386;53.082;8.816;2023-11-18T15:31:20;8.20;94.20
64888;DHT22;51386;53.082;8.816;2023-11-18T15:33:49;8.20;94.20
64888;DHT22;51386;53.082;8.816;2023-11-18T15:36:18;8.10;94.30
64888;DHT22;51386;53.082;8.816;2023-11-18T15:38:47;8.20;94.30
64888;DHT22;51386;53.082;8.816;2023-11-18T15:41:15;8.20;94.40
64888;DHT22;51386;53.082;8.816;2023-11-18T15:43:45;8.10;94.40
64888;DHT22;51386;53.082;8.816;2023-11-18T15:46:14;8.10;94.60
64888;DHT22;51386;53.082;8.816;2023-11-18T15:48:42;8.10;94.60
64888;DHT22;51386;53.082;8.816;2023-11-18T15:51:11;8.10;94.60
64888;DHT22;51386;53.082;8.816;2023-11-18T15:53:41;8.10;94.70
64888;DHT22;51386;53.082;8.816;2023-11-18T15:56:10;8.10;94.80
64888;DHT22;51386;53.082;8.816;2023-11-18T15:58:39;8.10;94.80
64888;DHT22;51386;53.082;8.816;2023-11-18T16:01:10;8.10;94.90
64888;DHT22;51386;53.082;8.816;2023-11-18T16:03:43;8.10;94.90
64888;DHT22;51386;53.082;8.816;2023-11-18T16:06:12;8.10;95.00
64888;DHT22;51386;53.082;8.816;2023-11-18T16:08:41;8.00;95.00
64888;DHT22;51386;53.082;8.816;2023-11-18T16:11:13;8.00;95.00
64888;DHT22;51386;53.082;8.816;2023-11-18T16:13:42;8.00;95.00
64888;DHT22;51386;53.082;8.816;2023-11-18T16:16:10;8.00;95.00
64888;DHT22;51386;53.082;8.816;2023-11-18T16:18:40;8.00;95.10
64888;DHT22;51386;53.082;8.816;2023-11-18T16:21:13;7.90;95.20
64888;DHT22;51386;53.082;8.816;2023-11-18T16:23:45;7.90;95.20
64888;DHT22;51386;53.082;8.816;2023-11-18T16:26:13;7.90;95.20
64888;DHT22;51386;53.082;8.816;2023-11-18T16:28:42;7.90;95.20
64888;DHT22;51386;53.082;8.816;2023-11-18T16:31:10;7.90;95.30